createdAt,value
2018-07-16T00:01:06.384Z,21.92
2018-07-16T00:03:35.030Z,21.96
2018-07-16T00:06:03.644Z,21.96
2018-07-16T00:08:32.261Z,21.96
2018-07-16T00:11:00.873Z,21.92
2018-07-16T00:13:29.554Z,21.90
2018-07-16T00:15:58.134Z,21.86
2018-07-16T00:18:27.003Z,21.80
2018-07-16T00:20:55.580Z,21.78
2018-07-16T00:23:24.178Z,21.88
2018-07-16T00:25:52.722Z,21.86
2018-07-16T00:28:21.326Z,21.77
2018-07-16T00:30:49.910Z,21.69
2018-07-16T00:33:18.507Z,21.67
2018-07-16T00:35:47.107Z,21.71
2018-07-16T00:38:15.700Z,21.57
2018-07-16T00:40:44.316Z,21.68
2018-07-16T00:43:12.969Z,21.58
2018-07-16T00:45:41.570Z,21.74
2018-07-16T00:48:10.190Z,21.71
2018-07-16T00:50:38.790Z,21.68
2018-07-16T00:53:07.356Z,21.64
2018-07-16T00:55:36.001Z,21.61
2018-07-16T00:58:04.613Z,21.50
2018-07-16T01:00:33.293Z,21.38
2018-07-16T01:03:01.909Z,21.32
2018-07-16T01:05:30.564Z,21.41
2018-07-16T01:07:59.173Z,21.33
2018-07-16T01:10:27.850Z,21.19
2018-07-16T01:12:56.449Z,21.04
2018-07-16T01:15:25.070Z,20.91
2018-07-16T01:17:53.702Z,20.81
2018-07-16T01:20:23.025Z,20.81
2018-07-16T01:22:51.634Z,20.74
2018-07-16T01:25:20.246Z,20.73
2018-07-16T01:27:48.851Z,20.58
2018-07-16T01:30:17.458Z,20.53
2018-07-16T01:32:46.041Z,20.40
2018-07-16T01:35:14.721Z,20.30
2018-07-16T01:37:43.298Z,20.16
2018-07-16T01:40:11.936Z,20.10
2018-07-16T01:42:40.555Z,20.08
2018-07-16T01:45:09.154Z,19.94
2018-07-16T01:47:37.762Z,19.89
2018-07-16T01:50:06.334Z,19.77
2018-07-16T01:52:35.386Z,19.69
2018-07-16T01:55:04.182Z,19.61
2018-07-16T01:57:33.085Z,19.56
2018-07-16T02:00:02.296Z,19.57
2018-07-16T02:02:30.898Z,19.56
2018-07-16T02:04:59.668Z,19.65
2018-07-16T02:07:28.270Z,19.61
2018-07-16T02:09:56.853Z,19.72
2018-07-16T02:12:25.467Z,19.71
2018-07-16T02:14:54.133Z,19.59
2018-07-16T02:17:22.737Z,19.43
2018-07-16T02:19:51.366Z,19.53
2018-07-16T02:22:19.994Z,19.62
2018-07-16T02:24:48.608Z,19.63
2018-07-16T02:27:17.769Z,19.63
2018-07-16T02:29:46.375Z,19.57
2018-07-16T02:32:14.982Z,19.46
2018-07-16T02:34:43.918Z,19.36
2018-07-16T02:37:12.509Z,19.32
2018-07-16T02:39:41.113Z,19.28
2018-07-16T02:42:09.863Z,19.22
2018-07-16T02:44:38.489Z,19.16
2018-07-16T02:47:07.101Z,19.26
2018-07-16T02:49:35.710Z,19.26
2018-07-16T02:52:04.300Z,19.16
2018-07-16T02:54:32.870Z,19.05
2018-07-16T02:57:01.670Z,19.01
2018-07-16T02:59:30.365Z,19.13
2018-07-16T03:01:58.972Z,19.10
2018-07-16T03:04:27.590Z,19.09
2018-07-16T03:06:56.234Z,19.05
2018-07-16T03:09:25.562Z,19.02
2018-07-16T03:11:54.166Z,19.04
2018-07-16T03:14:24.185Z,19.33
2018-07-16T03:16:52.811Z,19.60
2018-07-16T03:19:21.449Z,19.75
2018-07-16T03:21:50.073Z,19.99
2018-07-16T03:24:18.739Z,20.00
2018-07-16T03:26:47.316Z,19.85
2018-07-16T03:29:15.917Z,19.93
2018-07-16T03:31:44.524Z,19.86
2018-07-16T03:34:13.133Z,19.85
2018-07-16T03:36:41.771Z,19.78
2018-07-16T03:39:10.839Z,19.74
2018-07-16T03:41:39.460Z,19.71
2018-07-16T03:44:08.202Z,19.68
2018-07-16T03:46:36.897Z,19.68
2018-07-16T03:49:05.489Z,19.99
2018-07-16T03:51:34.109Z,20.05
2018-07-16T03:54:02.771Z,20.06
2018-07-16T03:56:31.366Z,20.24
2018-07-16T03:58:59.958Z,20.26
2018-07-16T04:01:28.685Z,20.41
2018-07-16T04:03:57.295Z,20.47
2018-07-16T04:06:25.902Z,20.68
2018-07-16T04:08:54.509Z,20.77
2018-07-16T04:11:23.366Z,20.70
2018-07-16T04:13:51.991Z,20.76
2018-07-16T04:16:20.629Z,20.70
2018-07-16T04:18:49.206Z,20.68
2018-07-16T04:21:17.988Z,20.66
2018-07-16T04:23:46.630Z,20.62
2018-07-16T04:26:15.234Z,20.69
2018-07-16T04:28:43.845Z,20.72
2018-07-16T04:31:12.469Z,20.93
2018-07-16T04:33:41.072Z,20.97
2018-07-16T04:36:09.742Z,21.19
2018-07-16T04:38:38.366Z,21.09
2018-07-16T04:41:07.046Z,21.15
2018-07-16T04:43:35.707Z,21.28
2018-07-16T04:46:04.316Z,21.34
2018-07-16T04:48:33.217Z,21.48
2018-07-16T04:51:02.229Z,21.61
2018-07-16T04:53:30.874Z,21.69
2018-07-16T04:55:59.458Z,21.82
2018-07-16T04:58:28.160Z,22.13
2018-07-16T05:00:56.847Z,22.13
2018-07-16T05:03:25.511Z,22.13
2018-07-16T05:05:55.204Z,22.24
2018-07-16T05:08:23.894Z,22.33
2018-07-16T05:10:54.208Z,22.59
2018-07-16T05:13:23.338Z,22.57
2018-07-16T05:15:51.957Z,22.68
2018-07-16T05:18:20.976Z,22.75
2018-07-16T05:20:49.530Z,22.82
2018-07-16T05:23:18.165Z,22.75
2018-07-16T05:25:46.773Z,22.99
2018-07-16T05:28:15.395Z,23.15
2018-07-16T05:30:44.061Z,23.28
2018-07-16T05:33:12.673Z,23.49
2018-07-16T05:35:41.333Z,23.58
2018-07-16T05:38:09.921Z,23.68
2018-07-16T05:40:38.562Z,23.79
2018-07-16T05:43:07.838Z,23.84
2018-07-16T05:45:36.661Z,24.04
2018-07-16T05:48:05.351Z,24.03
2018-07-16T05:50:33.963Z,24.22
2018-07-16T05:53:02.626Z,24.29
2018-07-16T05:55:31.328Z,24.41
2018-07-16T05:57:59.998Z,24.50
2018-07-16T06:00:28.666Z,24.60
2018-07-16T06:02:57.378Z,24.81
2018-07-16T06:05:26.152Z,24.94
2018-07-16T06:07:54.774Z,25.04
2018-07-16T06:10:23.431Z,25.02
2018-07-16T06:12:52.217Z,25.17
2018-07-16T06:15:21.172Z,25.28
2018-07-16T06:17:49.889Z,25.22
2018-07-16T06:20:18.575Z,25.08
2018-07-16T06:22:47.177Z,25.09
2018-07-16T06:25:16.074Z,25.17
2018-07-16T06:27:44.913Z,25.12
2018-07-16T06:30:13.556Z,25.25
2018-07-16T06:32:42.237Z,25.21
2018-07-16T06:35:10.870Z,25.38
2018-07-16T06:37:39.520Z,25.59
2018-07-16T06:40:08.189Z,25.80
2018-07-16T06:42:36.825Z,25.85
2018-07-16T06:45:05.662Z,26.00
2018-07-16T06:47:34.252Z,25.97
2018-07-16T06:50:02.944Z,25.87
2018-07-16T06:52:31.605Z,25.88
2018-07-16T06:55:00.277Z,25.66
2018-07-16T06:57:28.876Z,25.88
2018-07-16T06:59:57.522Z,25.73
2018-07-16T07:02:26.272Z,25.95
2018-07-16T07:04:55.448Z,26.20
2018-07-16T07:07:24.042Z,26.54
2018-07-16T07:09:52.839Z,26.72
2018-07-16T07:12:21.546Z,26.82
2018-07-16T07:14:50.462Z,26.96
2018-07-16T07:17:19.111Z,27.14
2018-07-16T07:19:47.714Z,27.04
2018-07-16T07:22:16.348Z,26.71
2018-07-16T07:24:44.927Z,26.45
2018-07-16T07:27:13.540Z,26.33
2018-07-16T07:29:42.148Z,26.11
2018-07-16T07:32:11.241Z,26.35
2018-07-16T07:34:39.923Z,26.43
2018-07-16T07:37:08.607Z,26.52
2018-07-16T07:39:37.285Z,26.33
2018-07-16T07:42:06.067Z,26.08
2018-07-16T07:44:34.673Z,26.39
2018-07-16T07:47:03.297Z,26.66
2018-07-16T07:49:31.998Z,26.77
2018-07-16T07:52:00.637Z,27.12
2018-07-16T07:54:29.408Z,27.03
2018-07-16T07:56:58.441Z,27.20
2018-07-16T07:59:27.118Z,27.42
2018-07-16T08:01:55.814Z,27.33
2018-07-16T08:04:24.465Z,27.68
2018-07-16T08:06:58.225Z,27.71
2018-07-16T08:09:26.834Z,27.69
2018-07-16T08:11:55.516Z,27.63
2018-07-16T08:14:24.197Z,27.62
2018-07-16T08:16:52.853Z,27.79
2018-07-16T08:19:21.561Z,27.94
2018-07-16T08:21:51.174Z,28.04
2018-07-16T08:24:19.902Z,27.70
2018-07-16T08:26:48.725Z,27.73
2018-07-16T08:29:17.357Z,27.71
2018-07-16T08:31:46.120Z,27.99
2018-07-16T08:34:14.933Z,28.16
2018-07-16T08:36:43.560Z,28.02
2018-07-16T08:39:12.270Z,28.08
2018-07-16T08:41:41.710Z,28.23
2018-07-16T08:44:10.306Z,28.23
2018-07-16T08:46:38.963Z,27.83
2018-07-16T08:49:07.650Z,27.70
2018-07-16T08:51:36.331Z,27.91
2018-07-16T08:54:04.970Z,28.31
2018-07-16T08:56:33.754Z,28.43
2018-07-16T08:59:02.844Z,28.16
2018-07-16T09:01:31.488Z,28.32
2018-07-16T09:04:00.238Z,28.72
2018-07-16T09:06:28.861Z,28.97
2018-07-16T09:08:57.617Z,28.97
2018-07-16T09:11:26.259Z,29.01
2018-07-16T09:13:54.884Z,29.19
2018-07-16T09:16:23.555Z,29.10
2018-07-16T09:18:52.349Z,29.25
2018-07-16T09:21:21.036Z,29.23
2018-07-16T09:23:49.844Z,29.57
2018-07-16T09:26:18.498Z,29.67
2018-07-16T09:28:47.193Z,29.72
2018-07-16T09:31:15.870Z,29.64
2018-07-16T09:33:44.514Z,29.85
2018-07-16T09:36:13.191Z,29.97
2018-07-16T09:38:44.388Z,29.90
2018-07-16T09:41:13.311Z,28.89
2018-07-16T09:43:42.031Z,28.42
2018-07-16T09:46:10.875Z,28.28
2018-07-16T09:48:39.673Z,27.95
2018-07-16T09:51:08.409Z,27.63
2018-07-16T09:53:37.083Z,27.48
2018-07-16T09:56:06.080Z,27.57
2018-07-16T09:58:34.758Z,27.58
2018-07-16T10:01:08.771Z,27.36
2018-07-16T10:03:37.757Z,27.11
2018-07-16T10:06:06.561Z,27.37
2018-07-16T10:08:35.249Z,27.24
2018-07-16T10:11:03.905Z,27.51
2018-07-16T10:13:32.621Z,27.50
2018-07-16T10:16:01.373Z,27.24
2018-07-16T10:18:30.141Z,27.09
2018-07-16T10:20:58.846Z,26.90
2018-07-16T10:23:27.657Z,27.06
2018-07-16T10:25:56.555Z,26.93
2018-07-16T10:28:25.034Z,26.93
2018-07-16T10:30:54.408Z,26.91
2018-07-16T10:33:23.104Z,26.66
2018-07-16T10:35:51.882Z,26.63
2018-07-16T10:38:20.670Z,26.67
2018-07-16T10:40:49.415Z,26.82
2018-07-16T10:43:18.058Z,27.02
2018-07-16T10:45:46.843Z,27.01
2018-07-16T10:48:15.569Z,26.69
2018-07-16T10:50:44.301Z,26.66
2018-07-16T10:53:12.953Z,26.64
2018-07-16T10:55:41.627Z,26.79
2018-07-16T10:58:10.570Z,27.06
2018-07-16T11:00:39.570Z,27.13
2018-07-16T11:03:09.919Z,27.15
2018-07-16T11:05:38.546Z,27.39
2018-07-16T11:08:07.377Z,27.53
2018-07-16T11:10:36.337Z,27.98
2018-07-16T11:13:05.120Z,28.39
2018-07-16T11:15:33.878Z,28.85
2018-07-16T11:18:02.738Z,29.58
2018-07-16T11:20:32.042Z,29.41
2018-07-16T11:23:00.762Z,29.44
2018-07-16T11:25:29.843Z,29.50
2018-07-16T11:27:58.579Z,29.68
2018-07-16T11:30:27.280Z,29.70
2018-07-16T11:32:55.916Z,29.63
2018-07-16T11:35:24.660Z,29.37
2018-07-16T11:37:53.302Z,29.30
2018-07-16T11:40:21.986Z,29.27
2018-07-16T11:42:50.614Z,29.51
2018-07-16T11:45:19.354Z,29.68
2018-07-16T11:47:48.161Z,29.69
2018-07-16T11:50:16.807Z,29.36
2018-07-16T11:52:45.469Z,29.54
2018-07-16T11:55:14.194Z,29.85
2018-07-16T11:57:42.797Z,29.99
2018-07-16T12:00:11.532Z,30.08
2018-07-16T12:02:40.165Z,30.43
2018-07-16T12:05:08.860Z,30.36
2018-07-16T12:07:37.448Z,30.27
2018-07-16T12:10:06.204Z,29.99
2018-07-16T12:12:35.035Z,30.10
2018-07-16T12:15:03.840Z,29.66
2018-07-16T12:17:32.668Z,30.41
2018-07-16T12:20:01.567Z,31.12
2018-07-16T12:22:30.344Z,30.71
2018-07-16T12:24:59.062Z,30.87
2018-07-16T12:27:27.742Z,30.89
2018-07-16T12:29:56.415Z,31.02
2018-07-16T12:32:25.126Z,30.67
2018-07-16T12:34:54.015Z,31.09
2018-07-16T12:37:22.811Z,31.34
2018-07-16T12:39:51.437Z,31.13
2018-07-16T12:42:20.407Z,31.39
2018-07-16T12:44:49.213Z,31.55
2018-07-16T12:47:17.866Z,31.35
2018-07-16T12:49:46.507Z,31.39
2018-07-16T12:52:15.147Z,31.53
2018-07-16T12:54:43.985Z,31.64
2018-07-16T12:57:12.765Z,31.76
2018-07-16T12:59:41.358Z,31.78
2018-07-16T13:02:10.826Z,31.77
2018-07-16T13:04:39.778Z,31.85
2018-07-16T13:07:10.605Z,31.82
2018-07-16T13:09:39.588Z,31.93
2018-07-16T13:12:08.404Z,32.76
2018-07-16T13:14:37.089Z,32.48
2018-07-16T13:17:05.759Z,32.13
2018-07-16T13:19:34.557Z,31.84
2018-07-16T13:22:03.315Z,31.84
2018-07-16T13:24:31.938Z,32.29
2018-07-16T13:27:01.106Z,33.10
2018-07-16T13:29:30.200Z,33.53
2018-07-16T13:31:58.981Z,33.06
2018-07-16T13:34:27.896Z,32.93
2018-07-16T13:36:56.921Z,32.71
2018-07-16T13:39:25.660Z,32.91
2018-07-16T13:41:54.781Z,33.10
2018-07-16T13:44:23.463Z,33.70
2018-07-16T13:46:52.134Z,33.78
2018-07-16T13:49:26.177Z,33.21
2018-07-16T13:51:54.861Z,33.75
2018-07-16T13:54:23.520Z,33.24
2018-07-16T13:56:52.217Z,33.63
2018-07-16T13:59:20.835Z,32.97
2018-07-16T14:01:50.071Z,32.54
2018-07-16T14:04:18.781Z,33.15
2018-07-16T14:06:47.510Z,33.60
2018-07-16T14:09:16.198Z,32.68
2018-07-16T14:11:44.858Z,32.48
2018-07-16T14:14:13.524Z,32.12
2018-07-16T14:16:42.149Z,30.45
2018-07-16T14:19:11.006Z,29.81
2018-07-16T14:21:39.600Z,29.83
2018-07-16T14:24:08.200Z,29.58
2018-07-16T14:26:36.827Z,28.88
2018-07-16T14:29:05.542Z,28.79
2018-07-16T14:31:34.216Z,28.85
2018-07-16T14:34:02.972Z,28.23
2018-07-16T14:36:32.934Z,27.67
2018-07-16T14:39:03.263Z,27.41
2018-07-16T14:41:32.064Z,27.17
2018-07-16T14:44:00.733Z,27.12
2018-07-16T14:46:29.597Z,27.04
2018-07-16T14:48:58.306Z,26.92
2018-07-16T14:51:26.996Z,26.84
2018-07-16T14:53:55.651Z,26.86
2018-07-16T14:56:24.301Z,26.82
2018-07-16T14:58:52.964Z,26.52
2018-07-16T15:01:21.650Z,26.09
2018-07-16T15:03:50.341Z,25.85
2018-07-16T15:06:19.017Z,25.39
2018-07-16T15:08:47.702Z,24.79
2018-07-16T15:11:16.686Z,23.88
2018-07-16T15:13:45.921Z,23.44
2018-07-16T15:16:14.919Z,23.21
2018-07-16T15:18:43.957Z,23.07
2018-07-16T15:21:14.185Z,22.96
2018-07-16T15:23:42.859Z,22.77
2018-07-16T15:26:13.285Z,22.52
2018-07-16T15:28:42.803Z,22.21
2018-07-16T15:31:12.455Z,22.21
2018-07-16T15:33:41.846Z,22.13
2018-07-16T15:36:12.354Z,22.27
2018-07-16T15:38:42.202Z,22.32
2018-07-16T15:41:11.448Z,22.48
2018-07-16T15:43:41.168Z,22.84
2018-07-16T15:46:09.958Z,23.25
2018-07-16T15:48:38.810Z,23.70
2018-07-16T15:51:07.940Z,24.63
2018-07-16T15:53:37.012Z,27.07
2018-07-16T15:56:06.077Z,29.08
2018-07-16T15:58:35.034Z,31.30
2018-07-16T16:01:04.809Z,33.10
2018-07-16T16:03:33.890Z,34.10
2018-07-16T16:06:03.831Z,34.61
2018-07-16T16:08:32.607Z,34.81
2018-07-16T16:11:01.361Z,35.67
2018-07-16T16:13:32.163Z,35.14
2018-07-16T16:16:01.280Z,34.71
2018-07-16T16:18:30.372Z,35.78
2018-07-16T16:20:59.107Z,35.36
2018-07-16T16:23:27.845Z,35.86
2018-07-16T16:25:56.607Z,35.58
2018-07-16T16:28:25.372Z,35.40
2018-07-16T16:30:54.022Z,36.59
2018-07-16T16:33:22.769Z,36.61
2018-07-16T16:35:51.520Z,37.26
2018-07-16T16:38:20.215Z,36.45
2018-07-16T16:40:48.899Z,35.93
2018-07-16T16:43:17.551Z,36.31
2018-07-16T16:45:46.240Z,36.47
2018-07-16T16:48:15.037Z,36.29
2018-07-16T16:50:43.782Z,37.55
2018-07-16T16:53:12.627Z,38.31
2018-07-16T16:55:41.386Z,37.72
2018-07-16T16:58:10.291Z,36.40
2018-07-16T17:00:39.111Z,35.82
2018-07-16T17:03:07.963Z,35.99
2018-07-16T17:05:36.748Z,35.11
2018-07-16T17:08:06.180Z,34.84
2018-07-16T17:10:37.138Z,35.37
2018-07-16T17:13:05.829Z,35.43
2018-07-16T17:15:34.625Z,36.10
2018-07-16T17:18:03.289Z,36.15
2018-07-16T17:20:31.963Z,34.43
2018-07-16T17:23:00.832Z,32.19
2018-07-16T17:25:29.516Z,30.64
2018-07-16T17:27:58.220Z,29.50
2018-07-16T17:30:26.886Z,29.44
2018-07-16T17:32:57.139Z,31.12
2018-07-16T17:35:25.804Z,32.54
2018-07-16T17:37:54.566Z,32.82
2018-07-16T17:40:23.266Z,33.28
2018-07-16T17:42:52.390Z,33.67
2018-07-16T17:45:21.001Z,32.81
2018-07-16T17:47:49.818Z,33.34
2018-07-16T17:50:18.928Z,33.96
2018-07-16T17:52:47.973Z,33.55
2018-07-16T17:55:16.663Z,32.54
2018-07-16T17:57:45.340Z,31.75
2018-07-16T18:00:13.984Z,30.98
2018-07-16T18:02:42.653Z,29.58
2018-07-16T18:05:11.422Z,28.92
2018-07-16T18:07:40.097Z,28.10
2018-07-16T18:10:08.902Z,27.68
2018-07-16T18:12:37.673Z,26.99
2018-07-16T18:15:06.366Z,26.47
2018-07-16T18:17:35.161Z,26.05
2018-07-16T18:20:03.921Z,25.83
2018-07-16T18:22:32.714Z,25.69
2018-07-16T18:25:01.641Z,25.04
2018-07-16T18:27:32.246Z,24.76
2018-07-16T18:30:01.927Z,24.67
2018-07-16T18:32:31.089Z,24.56
2018-07-16T18:35:01.378Z,24.29
2018-07-16T18:37:32.197Z,24.06
2018-07-16T18:40:00.924Z,24.09
2018-07-16T18:42:29.590Z,23.89
2018-07-16T18:44:59.474Z,23.74
2018-07-16T18:47:28.142Z,23.52
2018-07-16T18:49:56.800Z,23.51
2018-07-16T18:52:25.686Z,23.38
2018-07-16T18:54:54.798Z,23.27
2018-07-16T18:57:23.687Z,23.16
2018-07-16T18:59:52.434Z,23.14
2018-07-16T19:02:21.146Z,23.05
2018-07-16T19:04:49.791Z,23.06
2018-07-16T19:07:21.938Z,22.97
2018-07-16T19:09:51.792Z,22.99
2018-07-16T19:12:20.774Z,22.76
2018-07-16T19:14:49.993Z,22.63
2018-07-16T19:17:18.767Z,22.67
2018-07-16T19:32:42.720Z,22.17
2018-07-16T19:35:12.090Z,22.06
2018-07-16T19:37:40.726Z,21.97
2018-07-16T19:40:09.961Z,21.96
2018-07-16T19:42:39.410Z,21.89
2018-07-16T19:45:08.100Z,21.89
2018-07-16T19:47:37.059Z,21.86
2018-07-16T19:50:07.184Z,21.83
2018-07-16T19:52:36.830Z,21.80
2018-07-16T19:55:05.968Z,21.78
2018-07-16T19:57:34.719Z,21.79
2018-07-16T20:00:03.503Z,21.74
2018-07-16T20:02:32.460Z,21.72
2018-07-16T20:05:02.173Z,21.66
2018-07-16T20:07:30.866Z,21.64
2018-07-16T20:10:00.482Z,21.63
2018-07-16T20:12:32.563Z,21.60
2018-07-16T20:15:02.093Z,21.60
2018-07-16T20:17:31.067Z,21.61
2018-07-16T20:20:00.154Z,21.55
2018-07-16T20:22:29.208Z,21.47
2018-07-16T20:24:58.063Z,21.43
2018-07-16T20:27:26.704Z,21.38
2018-07-16T20:29:55.397Z,21.31
2018-07-16T20:32:24.084Z,21.31
2018-07-16T20:34:52.790Z,21.23
2018-07-16T20:37:21.466Z,21.20
2018-07-16T20:39:50.107Z,21.11
2018-07-16T20:42:18.687Z,21.04
2018-07-16T20:44:47.294Z,21.02
2018-07-16T20:47:15.897Z,21.03
2018-07-16T20:49:44.550Z,21.02
2018-07-16T20:52:13.192Z,21.07
2018-07-16T20:54:41.825Z,21.09
2018-07-16T20:57:10.571Z,21.15
2018-07-16T20:59:39.281Z,21.17
2018-07-16T21:02:09.001Z,21.33
2018-07-16T21:04:37.581Z,21.36
2018-07-16T21:07:06.189Z,21.56
2018-07-16T21:09:34.839Z,21.71
2018-07-16T21:12:03.439Z,21.70
2018-07-16T21:14:32.032Z,21.56
2018-07-16T21:17:00.695Z,21.58
2018-07-16T21:19:29.318Z,21.58
2018-07-16T21:21:57.938Z,21.53
2018-07-16T21:24:26.567Z,21.49
2018-07-16T21:26:55.173Z,21.50
2018-07-16T21:29:23.867Z,21.49
2018-07-16T21:31:52.491Z,21.41
2018-07-16T21:34:21.122Z,21.37
2018-07-16T21:36:49.832Z,21.33
2018-07-16T21:39:18.404Z,21.30
2018-07-16T21:41:46.997Z,21.26
2018-07-16T21:44:15.774Z,21.23
2018-07-16T21:46:44.382Z,21.24
2018-07-16T21:49:13.035Z,21.29
2018-07-16T21:51:43.552Z,21.28
2018-07-16T21:54:12.171Z,21.28
2018-07-16T21:56:40.829Z,21.31
2018-07-16T21:59:09.622Z,21.28
2018-07-16T22:01:38.338Z,21.26
2018-07-16T22:04:07.061Z,21.22
2018-07-16T22:06:35.666Z,21.23
2018-07-16T22:09:04.973Z,21.20
2018-07-16T22:21:14.690Z,21.19
2018-07-16T22:23:43.306Z,21.52
2018-07-16T22:26:12.413Z,21.64
2018-07-16T22:28:41.616Z,21.63
2018-07-16T22:31:11.092Z,21.66
2018-07-16T22:33:39.733Z,21.61
2018-07-16T22:36:09.057Z,21.65
2018-07-16T22:38:37.701Z,21.76
2018-07-16T22:41:06.898Z,21.71
2018-07-16T22:43:35.539Z,21.68
2018-07-16T22:46:04.178Z,21.66
2018-07-16T22:48:34.325Z,21.73
2018-07-16T22:51:03.005Z,21.67
2018-07-16T22:53:31.707Z,21.66
2018-07-16T22:56:00.303Z,21.88
2018-07-16T22:58:28.919Z,21.91
2018-07-16T23:00:57.515Z,21.87
2018-07-16T23:03:26.141Z,21.77
2018-07-16T23:05:54.901Z,21.78
2018-07-16T23:08:23.566Z,21.66
2018-07-16T23:10:52.155Z,21.57
2018-07-16T23:13:20.809Z,21.49
2018-07-16T23:15:49.397Z,21.57
2018-07-16T23:18:17.981Z,21.38
2018-07-16T23:20:46.693Z,21.28
2018-07-16T23:23:15.284Z,21.24
2018-07-16T23:25:44.054Z,21.32
2018-07-16T23:28:17.415Z,21.22
2018-07-16T23:30:46.070Z,21.19
2018-07-16T23:33:15.577Z,21.13
2018-07-16T23:35:44.194Z,21.07
2018-07-16T23:38:12.825Z,21.06
2018-07-16T23:40:41.429Z,20.95
2018-07-16T23:43:10.115Z,20.77
2018-07-16T23:45:38.688Z,20.80
2018-07-16T23:48:08.547Z,20.73
2018-07-16T23:50:37.170Z,20.68
2018-07-16T23:53:05.816Z,20.63
2018-07-16T23:55:34.407Z,20.67
2018-07-16T23:58:03.019Z,20.64
